sensor_id;sensor_type;location;lat;lon;timestamp;P1;durP1;ratioP1;P2;durP2;ratioP2
26177;SDS011;13924;47.670;10.310;2023-08-31T00:00:40;4.5;;;2.8;;
26177;SDS011;13924;47.670;10.310;2023-08-31T00:15:39;3.6;;;2.9;;
26177;SDS011;13924;47.670;10.310;2023-08-31T00:30:39;4.3;;;3.0;;
26177;SDS011;13924;47.670;10.310;2023-08-31T00:45:38;4.0;;;2.7;;
26177;SDS011;13924;47.670;10.310;2023-08-31T01:00:43;3.4;;;3.1;;
26177;SDS011;13924;47.670;10.310;2023-08-31T01:01:30;3.7;;;3.4;;
26177;SDS011;13924;47.670;10.310;2023-08-31T01:15:41;4.1;;;3.0;;
26177;SDS011;13924;47.670;10.310;2023-08-31T01:30:40;4.2;;;3.5;;
26177;SDS011;13924;47.670;10.310;2023-08-31T01:45:42;4.0;;;3.6;;
26177;SDS011;13924;47.670;10.310;2023-08-31T02:00:42;5.0;;;3.8;;
26177;SDS011;13924;47.670;10.310;2023-08-31T02:15:51;8.8;;;4.3;;
26177;SDS011;13924;47.670;10.310;2023-08-31T02:30:43;4.0;;;3.6;;
26177;SDS011;13924;47.670;10.310;2023-08-31T02:45:44;4.6;;;4.2;;
26177;SDS011;13924;47.670;10.310;2023-08-31T03:00:45;5.6;;;5.1;;
26177;SDS011;13924;47.670;10.310;2023-08-31T03:15:45;6.8;;;5.0;;
26177;SDS011;13924;47.670;10.310;2023-08-31T03:30:46;7.0;;;4.8;;
26177;SDS011;13924;47.670;10.310;2023-08-31T03:45:46;5.6;;;5.1;;
26177;SDS011;13924;47.670;10.310;2023-08-31T04:00:49;7.0;;;6.4;;
26177;SDS011;13924;47.670;10.310;2023-08-31T04:15:48;10.4;;;9.1;;
26177;SDS011;13924;47.670;10.310;2023-08-31T04:30:48;7.5;;;6.8;;
26177;SDS011;13924;47.670;10.310;2023-08-31T04:42:53;8.3;;;6.9;;
26177;SDS011;13924;47.670;10.310;2023-08-31T04:57:54;6.7;;;5.9;;
26177;SDS011;13924;47.670;10.310;2023-08-31T05:12:59;7.8;;;6.4;;
26177;SDS011;13924;47.670;10.310;2023-08-31T05:27:56;5.3;;;4.2;;
26177;SDS011;13924;47.670;10.310;2023-08-31T05:42:56;4.4;;;4.0;;
26177;SDS011;13924;47.670;10.310;2023-08-31T05:57:56;6.1;;;4.8;;
26177;SDS011;13924;47.670;10.310;2023-08-31T06:12:57;4.8;;;4.4;;
26177;SDS011;13924;47.670;10.310;2023-08-31T06:27:58;5.7;;;5.2;;
26177;SDS011;13924;47.670;10.310;2023-08-31T06:42:59;2.3;;;2.1;;
26177;SDS011;13924;47.670;10.310;2023-08-31T06:57:59;2.9;;;2.0;;
26177;SDS011;13924;47.670;10.310;2023-08-31T07:13:00;2.0;;;1.8;;
26177;SDS011;13924;47.670;10.310;2023-08-31T07:28:02;2.7;;;2.0;;
26177;SDS011;13924;47.670;10.310;2023-08-31T07:43:00;2.3;;;2.0;;
26177;SDS011;13924;47.670;10.310;2023-08-31T07:58:02;4.1;;;2.0;;
26177;SDS011;13924;47.670;10.310;2023-08-31T08:13:02;2.8;;;2.0;;
26177;SDS011;13924;47.670;10.310;2023-08-31T08:28:03;2.2;;;2.0;;
26177;SDS011;13924;47.670;10.310;2023-08-31T08:43:05;2.9;;;2.0;;
26177;SDS011;13924;47.670;10.310;2023-08-31T08:58:04;3.3;;;2.5;;
26177;SDS011;13924;47.670;10.310;2023-08-31T09:13:06;4.0;;;2.4;;
26177;SDS011;13924;47.670;10.310;2023-08-31T09:28:05;5.3;;;2.3;;
26177;SDS011;13924;47.670;10.310;2023-08-31T09:43:06;2.9;;;2.0;;
26177;SDS011;13924;47.670;10.310;2023-08-31T09:58:07;4.6;;;2.1;;
26177;SDS011;13924;47.670;10.310;2023-08-31T10:13:08;3.3;;;1.9;;
26177;SDS011;13924;47.670;10.310;2023-08-31T10:28:16;3.2;;;1.8;;
26177;SDS011;13924;47.670;10.310;2023-08-31T10:50:35;2.8;;;1.8;;
26177;SDS011;13924;47.670;10.310;2023-08-31T11:05:30;4.5;;;2.2;;
26177;SDS011;13924;47.670;10.310;2023-08-31T11:20:32;10.9;;;6.4;;
26177;SDS011;13924;47.670;10.310;2023-08-31T11:35:32;3.8;;;1.8;;
26177;SDS011;13924;47.670;10.310;2023-08-31T11:50:38;4.6;;;1.9;;
26177;SDS011;13924;47.670;10.310;2023-08-31T12:05:44;3.3;;;1.7;;
26177;SDS011;13924;47.670;10.310;2023-08-31T12:20:41;3.1;;;1.8;;
26177;SDS011;13924;47.670;10.310;2023-08-31T12:35:34;5.8;;;2.1;;
26177;SDS011;13924;47.670;10.310;2023-08-31T12:50:36;3.8;;;2.3;;
26177;SDS011;13924;47.670;10.310;2023-08-31T13:05:38;4.3;;;2.1;;
26177;SDS011;13924;47.670;10.310;2023-08-31T13:20:36;2.7;;;2.0;;
26177;SDS011;13924;47.670;10.310;2023-08-31T13:35:37;5.4;;;2.6;;
26177;SDS011;13924;47.670;10.310;2023-08-31T13:50:37;5.1;;;1.9;;
26177;SDS011;13924;47.670;10.310;2023-08-31T14:05:38;3.6;;;2.3;;
26177;SDS011;13924;47.670;10.310;2023-08-31T14:20:39;5.3;;;2.4;;
26177;SDS011;13924;47.670;10.310;2023-08-31T14:35:39;7.0;;;2.7;;
26177;SDS011;13924;47.670;10.310;2023-08-31T14:50:42;5.5;;;2.3;;
26177;SDS011;13924;47.670;10.310;2023-08-31T15:05:41;6.1;;;2.4;;
26177;SDS011;13924;47.670;10.310;2023-08-31T15:20:42;3.5;;;1.8;;
26177;SDS011;13924;47.670;10.310;2023-08-31T15:35:51;3.9;;;2.2;;
26177;SDS011;13924;47.670;10.310;2023-08-31T15:50:43;4.7;;;2.3;;
26177;SDS011;13924;47.670;10.310;2023-08-31T16:20:44;5.8;;;3.0;;
26177;SDS011;13924;47.670;10.310;2023-08-31T16:35:46;6.0;;;3.2;;
26177;SDS011;13924;47.670;10.310;2023-08-31T16:50:46;7.7;;;3.0;;
26177;SDS011;13924;47.670;10.310;2023-08-31T17:05:45;4.3;;;3.4;;
26177;SDS011;13924;47.670;10.310;2023-08-31T17:20:47;6.7;;;3.5;;
26177;SDS011;13924;47.670;10.310;2023-08-31T17:35:47;5.9;;;3.4;;
26177;SDS011;13924;47.670;10.310;2023-08-31T17:50:48;8.0;;;3.8;;
26177;SDS011;13924;47.670;10.310;2023-08-31T18:05:49;9.7;;;4.6;;
26177;SDS011;13924;47.670;10.310;2023-08-31T18:20:50;8.1;;;4.7;;
26177;SDS011;13924;47.670;10.310;2023-08-31T18:35:50;5.1;;;3.7;;
26177;SDS011;13924;47.670;10.310;2023-08-31T18:50:58;5.9;;;3.5;;
26177;SDS011;13924;47.670;10.310;2023-08-31T19:05:51;5.8;;;3.5;;
26177;SDS011;13924;47.670;10.310;2023-08-31T19:20:58;6.0;;;3.9;;
26177;SDS011;13924;47.670;10.310;2023-08-31T19:35:54;6.1;;;4.5;;
26177;SDS011;13924;47.670;10.310;2023-08-31T19:50:53;5.8;;;4.0;;
26177;SDS011;13924;47.670;10.310;2023-08-31T20:05:55;5.1;;;4.4;;
26177;SDS011;13924;47.670;10.310;2023-08-31T20:20:56;6.6;;;6.0;;
26177;SDS011;13924;47.670;10.310;2023-08-31T20:36:02;8.0;;;5.4;;
26177;SDS011;13924;47.670;10.310;2023-08-31T20:51:00;5.8;;;4.4;;
26177;SDS011;13924;47.670;10.310;2023-08-31T21:05:57;6.1;;;4.4;;
26177;SDS011;13924;47.670;10.310;2023-08-31T21:20:57;5.9;;;4.8;;
26177;SDS011;13924;47.670;10.310;2023-08-31T21:35:59;5.0;;;4.4;;
26177;SDS011;13924;47.670;10.310;2023-08-31T21:51:00;7.2;;;4.4;;
26177;SDS011;13924;47.670;10.310;2023-08-31T22:00:35;10.0;;;4.6;;
26177;SDS011;13924;47.670;10.310;2023-08-31T22:15:34;9.5;;;6.0;;
26177;SDS011;13924;47.670;10.310;2023-08-31T22:30:35;7.4;;;5.5;;
26177;SDS011;13924;47.670;10.310;2023-08-31T22:45:38;6.8;;;5.8;;
26177;SDS011;13924;47.670;10.310;2023-08-31T23:00:36;4.7;;;4.2;;
26177;SDS011;13924;47.670;10.310;2023-08-31T23:15:39;5.4;;;3.4;;
26177;SDS011;13924;47.670;10.310;2023-08-31T23:30:40;5.1;;;2.9;;
26177;SDS011;13924;47.670;10.310;2023-08-31T23:45:40;3.2;;;2.9;;
